sensor_id;sensor_type;location;lat;lon;timestamp;pressure;altitude;pressure_sealevel;temperature;humidity
38038;BME280;23843;51.320;12.340;2022-07-29T00:00:34;100533.31;;;19.22;41.04
38038;BME280;23843;51.320;12.340;2022-07-29T00:02:59;100528.91;;;19.21;41.14
38038;BME280;23843;51.320;12.340;2022-07-29T00:05:25;100519.47;;;19.17;41.75
38038;BME280;23843;51.320;12.340;2022-07-29T00:07:50;100520.41;;;19.16;41.28
38038;BME280;23843;51.320;12.340;2022-07-29T00:10:17;100510.81;;;19.14;41.78
38038;BME280;23843;51.320;12.340;2022-07-29T00:12:42;100504.88;;;19.10;41.31
38038;BME280;23843;51.320;12.340;2022-07-29T00:15:08;100505.81;;;19.09;41.58
38038;BME280;23843;51.320;12.340;2022-07-29T00:17:33;100492.56;;;19.08;41.56
38038;BME280;23843;51.320;12.340;2022-07-29T00:19:59;100493.28;;;19.10;41.85
38038;BME280;23843;51.320;12.340;2022-07-29T00:22:24;100487.59;;;19.03;42.18
38038;BME280;23843;51.320;12.340;2022-07-29T00:24:50;100478.38;;;18.96;42.29
38038;BME280;23843;51.320;12.340;2022-07-29T00:27:18;100475.97;;;18.93;42.35
38038;BME280;23843;51.320;12.340;2022-07-29T00:29:43;100470.72;;;18.91;42.27
38038;BME280;23843;51.320;12.340;2022-07-29T00:32:09;100466.91;;;18.94;42.17
38038;BME280;23843;51.320;12.340;2022-07-29T00:34:35;100459.69;;;18.94;42.20
38038;BME280;23843;51.320;12.340;2022-07-29T00:37:00;100463.06;;;18.87;42.85
38038;BME280;23843;51.320;12.340;2022-07-29T00:39:26;100460.53;;;18.85;42.89
38038;BME280;23843;51.320;12.340;2022-07-29T00:41:51;100461.09;;;18.89;42.33
38038;BME280;23843;51.320;12.340;2022-07-29T00:44:18;100453.88;;;18.89;42.58
38038;BME280;23843;51.320;12.340;2022-07-29T00:46:43;100456.56;;;18.89;42.32
38038;BME280;23843;51.320;12.340;2022-07-29T00:49:09;100452.47;;;18.85;42.79
38038;BME280;23843;51.320;12.340;2022-07-29T00:51:35;100450.19;;;18.80;42.77
38038;BME280;23843;51.320;12.340;2022-07-29T00:54:01;100441.13;;;18.81;42.71
38038;BME280;23843;51.320;12.340;2022-07-29T00:56:29;100443.81;;;18.81;42.37
38038;BME280;23843;51.320;12.340;2022-07-29T00:58:55;100443.38;;;18.76;42.61
38038;BME280;23843;51.320;12.340;2022-07-29T01:01:22;100441.19;;;18.70;43.41
38038;BME280;23843;51.320;12.340;2022-07-29T01:03:48;100442.44;;;18.66;43.15
38038;BME280;23843;51.320;12.340;2022-07-29T01:06:14;100439.50;;;18.69;42.82
38038;BME280;23843;51.320;12.340;2022-07-29T01:08:40;100433.41;;;18.67;43.38
38038;BME280;23843;51.320;12.340;2022-07-29T01:11:06;100440.03;;;18.63;43.16
38038;BME280;23843;51.320;12.340;2022-07-29T01:13:32;100441.72;;;18.64;43.14
38038;BME280;23843;51.320;12.340;2022-07-29T01:16:03;100443.19;;;18.68;42.79
38038;BME280;23843;51.320;12.340;2022-07-29T01:18:34;100446.81;;;18.67;43.36
38038;BME280;23843;51.320;12.340;2022-07-29T01:21:48;100441.47;;;18.67;42.98
38038;BME280;23843;51.320;12.340;2022-07-29T01:24:30;100436.94;;;18.68;42.85
38038;BME280;23843;51.320;12.340;2022-07-29T01:27:04;100437.81;;;18.68;42.84
38038;BME280;23843;51.320;12.340;2022-07-29T01:29:39;100432.69;;;18.65;42.97
38038;BME280;23843;51.320;12.340;2022-07-29T01:32:08;100434.91;;;18.60;43.57
38038;BME280;23843;51.320;12.340;2022-07-29T01:34:41;100434.19;;;18.58;43.38
38038;BME280;23843;51.320;12.340;2022-07-29T01:37:11;100431.94;;;18.53;43.23
38038;BME280;23843;51.320;12.340;2022-07-29T01:39:42;100426.41;;;18.55;43.35
38038;BME280;23843;51.320;12.340;2022-07-29T01:42:15;100430.81;;;18.56;43.63
38038;BME280;23843;51.320;12.340;2022-07-29T01:44:52;100425.84;;;18.51;43.70
38038;BME280;23843;51.320;12.340;2022-07-29T01:47:20;100424.69;;;18.44;43.94
38038;BME280;23843;51.320;12.340;2022-07-29T01:49:51;100418.88;;;18.39;44.31
38038;BME280;23843;51.320;12.340;2022-07-29T01:52:24;100426.50;;;18.44;43.77
38038;BME280;23843;51.320;12.340;2022-07-29T01:54:54;100423.84;;;18.44;43.88
38038;BME280;23843;51.320;12.340;2022-07-29T01:57:25;100419.72;;;18.39;44.01
38038;BME280;23843;51.320;12.340;2022-07-29T01:59:53;100424.47;;;18.36;44.13
38038;BME280;23843;51.320;12.340;2022-07-29T02:02:22;100418.97;;;18.37;43.78
38038;BME280;23843;51.320;12.340;2022-07-29T02:04:49;100417.28;;;18.36;44.43
38038;BME280;23843;51.320;12.340;2022-07-29T02:07:18;100413.88;;;18.34;44.21
38038;BME280;23843;51.320;12.340;2022-07-29T02:09:45;100419.09;;;18.36;44.24
38038;BME280;23843;51.320;12.340;2022-07-29T02:12:14;100422.66;;;18.36;44.25
38038;BME280;23843;51.320;12.340;2022-07-29T02:14:44;100410.59;;;18.31;44.09
38038;BME280;23843;51.320;12.340;2022-07-29T02:17:13;100413.28;;;18.31;44.05
38038;BME280;23843;51.320;12.340;2022-07-29T02:19:39;100410.47;;;18.32;44.84
38038;BME280;23843;51.320;12.340;2022-07-29T02:22:08;100413.03;;;18.34;44.28
38038;BME280;23843;51.320;12.340;2022-07-29T02:24:35;100411.06;;;18.36;43.76
38038;BME280;23843;51.320;12.340;2022-07-29T02:27:03;100405.44;;;18.39;43.84
38038;BME280;23843;51.320;12.340;2022-07-29T02:29:30;100407.59;;;18.45;43.90
38038;BME280;23843;51.320;12.340;2022-07-29T02:31:57;100415.38;;;18.48;43.91
38038;BME280;23843;51.320;12.340;2022-07-29T02:34:25;100416.25;;;18.49;43.91
38038;BME280;23843;51.320;12.340;2022-07-29T02:36:52;100415.38;;;18.48;43.43
38038;BME280;23843;51.320;12.340;2022-07-29T02:39:19;100410.88;;;18.49;43.63
38038;BME280;23843;51.320;12.340;2022-07-29T02:41:47;100412.84;;;18.47;43.61
38038;BME280;23843;51.320;12.340;2022-07-29T02:44:15;100415.97;;;18.52;43.42
38038;BME280;23843;51.320;12.340;2022-07-29T02:46:45;100410.06;;;18.58;43.71
38038;BME280;23843;51.320;12.340;2022-07-29T02:49:15;100404.13;;;18.54;43.75
38038;BME280;23843;51.320;12.340;2022-07-29T02:51:45;100405.22;;;18.52;43.75
38038;BME280;23843;51.320;12.340;2022-07-29T02:54:27;100402.09;;;18.47;44.01
38038;BME280;23843;51.320;12.340;2022-07-29T02:56:57;100405.19;;;18.42;43.87
38038;BME280;23843;51.320;12.340;2022-07-29T02:59:26;100400.94;;;18.39;43.84
38038;BME280;23843;51.320;12.340;2022-07-29T03:01:54;100403.88;;;18.36;44.61
38038;BME280;23843;51.320;12.340;2022-07-29T03:04:22;100403.88;;;18.36;44.07
38038;BME280;23843;51.320;12.340;2022-07-29T03:06:52;100403.72;;;18.38;44.22
38038;BME280;23843;51.320;12.340;2022-07-29T03:09:18;100396.81;;;18.35;44.04
38038;BME280;23843;51.320;12.340;2022-07-29T03:11:44;100391.00;;;18.30;44.11
38038;BME280;23843;51.320;12.340;2022-07-29T03:14:11;100387.00;;;18.25;44.09
38038;BME280;23843;51.320;12.340;2022-07-29T03:16:37;100389.34;;;18.18;44.33
38038;BME280;23843;51.320;12.340;2022-07-29T03:19:03;100395.72;;;18.17;44.32
38038;BME280;23843;51.320;12.340;2022-07-29T03:21:29;100390.59;;;18.14;44.67
38038;BME280;23843;51.320;12.340;2022-07-29T03:23:56;100385.38;;;18.12;45.14
38038;BME280;23843;51.320;12.340;2022-07-29T03:26:21;100392.31;;;18.15;45.04
38038;BME280;23843;51.320;12.340;2022-07-29T03:28:47;100395.00;;;18.15;44.98
38038;BME280;23843;51.320;12.340;2022-07-29T03:31:12;100405.56;;;18.16;44.61
38038;BME280;23843;51.320;12.340;2022-07-29T03:33:38;100400.03;;;18.08;45.26
38038;BME280;23843;51.320;12.340;2022-07-29T03:36:03;100389.41;;;18.07;44.96
38038;BME280;23843;51.320;12.340;2022-07-29T03:38:30;100391.41;;;18.05;44.75
38038;BME280;23843;51.320;12.340;2022-07-29T03:41:03;100396.16;;;18.01;45.18
38038;BME280;23843;51.320;12.340;2022-07-29T03:43:32;100391.91;;;17.99;45.14
38038;BME280;23843;51.320;12.340;2022-07-29T03:46:00;100390.94;;;18.00;44.97
38038;BME280;23843;51.320;12.340;2022-07-29T03:48:26;100397.25;;;17.99;45.63
38038;BME280;23843;51.320;12.340;2022-07-29T03:50:53;100396.69;;;17.95;45.27
38038;BME280;23843;51.320;12.340;2022-07-29T03:53:18;100392.56;;;17.91;45.36
38038;BME280;23843;51.320;12.340;2022-07-29T03:55:45;100405.69;;;17.94;45.14
38038;BME280;23843;51.320;12.340;2022-07-29T03:58:13;100401.06;;;17.96;45.28
38038;BME280;23843;51.320;12.340;2022-07-29T04:00:40;100410.66;;;17.99;44.97
38038;BME280;23843;51.320;12.340;2022-07-29T04:03:08;100405.19;;;18.00;45.40
38038;BME280;23843;51.320;12.340;2022-07-29T04:05:34;100402.63;;;17.99;45.47
38038;BME280;23843;51.320;12.340;2022-07-29T04:08:00;100404.28;;;17.90;45.54
38038;BME280;23843;51.320;12.340;2022-07-29T04:10:25;100411.69;;;17.86;45.61
38038;BME280;23843;51.320;12.340;2022-07-29T04:12:50;100405.34;;;17.87;45.75
38038;BME280;23843;51.320;12.340;2022-07-29T04:15:17;100408.19;;;17.86;46.02
38038;BME280;23843;51.320;12.340;2022-07-29T04:17:43;100410.41;;;17.81;46.32
38038;BME280;23843;51.320;12.340;2022-07-29T04:20:09;100411.25;;;17.81;46.03
38038;BME280;23843;51.320;12.340;2022-07-29T04:22:35;100411.69;;;17.86;45.72
38038;BME280;23843;51.320;12.340;2022-07-29T04:25:00;100409.88;;;17.87;46.17
38038;BME280;23843;51.320;12.340;2022-07-29T04:27:26;100410.59;;;17.89;45.62
38038;BME280;23843;51.320;12.340;2022-07-29T04:29:51;100413.00;;;17.92;45.70
38038;BME280;23843;51.320;12.340;2022-07-29T04:32:18;100410.31;;;17.92;46.13
38038;BME280;23843;51.320;12.340;2022-07-29T04:34:43;100412.78;;;17.95;45.58
38038;BME280;23843;51.320;12.340;2022-07-29T04:37:09;100411.91;;;17.94;45.84
38038;BME280;23843;51.320;12.340;2022-07-29T04:39:34;100416.03;;;17.99;45.95
38038;BME280;23843;51.320;12.340;2022-07-29T04:42:00;100413.09;;;18.02;45.42
38038;BME280;23843;51.320;12.340;2022-07-29T04:44:25;100422.31;;;18.09;45.44
38038;BME280;23843;51.320;12.340;2022-07-29T04:46:51;100427.88;;;18.17;45.58
38038;BME280;23843;51.320;12.340;2022-07-29T04:49:17;100420.97;;;18.14;45.45
38038;BME280;23843;51.320;12.340;2022-07-29T04:51:43;100424.41;;;18.05;45.94
38038;BME280;23843;51.320;12.340;2022-07-29T04:54:08;100416.50;;;18.04;45.65
38038;BME280;23843;51.320;12.340;2022-07-29T04:56:34;100417.94;;;18.08;45.72
38038;BME280;23843;51.320;12.340;2022-07-29T04:58:59;100413.50;;;18.18;45.52
38038;BME280;23843;51.320;12.340;2022-07-29T05:01:24;100413.69;;;18.26;45.28
38038;BME280;23843;51.320;12.340;2022-07-29T05:03:50;100416.34;;;18.26;45.16
38038;BME280;23843;51.320;12.340;2022-07-29T05:06:17;100416.84;;;18.31;45.22
38038;BME280;23843;51.320;12.340;2022-07-29T05:08:42;100416.19;;;18.39;44.91
38038;BME280;23843;51.320;12.340;2022-07-29T05:11:08;100422.19;;;18.52;45.07
38038;BME280;23843;51.320;12.340;2022-07-29T05:13:33;100416.59;;;18.65;44.54
38038;BME280;23843;51.320;12.340;2022-07-29T05:15:59;100412.66;;;18.69;44.84
38038;BME280;23843;51.320;12.340;2022-07-29T05:18:24;100411.91;;;18.78;44.68
38038;BME280;23843;51.320;12.340;2022-07-29T05:20:49;100413.63;;;18.89;44.43
38038;BME280;23843;51.320;12.340;2022-07-29T05:23:16;100417.06;;;19.01;44.24
38038;BME280;23843;51.320;12.340;2022-07-29T05:25:42;100427.56;;;19.14;43.98
38038;BME280;23843;51.320;12.340;2022-07-29T05:28:07;100429.56;;;19.21;43.87
38038;BME280;23843;51.320;12.340;2022-07-29T05:30:33;100426.72;;;19.13;43.72
38038;BME280;23843;51.320;12.340;2022-07-29T05:32:58;100423.50;;;19.19;43.52
38038;BME280;23843;51.320;12.340;2022-07-29T05:35:24;100429.03;;;19.28;43.64
38038;BME280;23843;51.320;12.340;2022-07-29T05:37:49;100419.56;;;19.33;43.72
38038;BME280;23843;51.320;12.340;2022-07-29T05:40:16;100422.81;;;19.37;43.60
38038;BME280;23843;51.320;12.340;2022-07-29T05:42:41;100418.31;;;19.37;43.58
38038;BME280;23843;51.320;12.340;2022-07-29T05:45:08;100419.44;;;19.35;43.77
38038;BME280;23843;51.320;12.340;2022-07-29T05:47:34;100412.09;;;19.37;43.72
38038;BME280;23843;51.320;12.340;2022-07-29T05:49:59;100412.50;;;19.32;43.92
38038;BME280;23843;51.320;12.340;2022-07-29T05:52:25;100418.84;;;19.41;43.96
38038;BME280;23843;51.320;12.340;2022-07-29T05:54:50;100414.63;;;19.48;43.37
38038;BME280;23843;51.320;12.340;2022-07-29T05:57:18;100406.72;;;19.46;43.59
38038;BME280;23843;51.320;12.340;2022-07-29T05:59:43;100407.03;;;19.53;43.59
38038;BME280;23843;51.320;12.340;2022-07-29T06:02:08;100409.84;;;19.61;43.33
38038;BME280;23843;51.320;12.340;2022-07-29T06:04:34;100409.31;;;19.67;42.95
38038;BME280;23843;51.320;12.340;2022-07-29T06:06:59;100404.66;;;19.70;43.05
38038;BME280;23843;51.320;12.340;2022-07-29T06:09:25;100401.78;;;19.61;43.01
38038;BME280;23843;51.320;12.340;2022-07-29T06:11:50;100396.13;;;19.55;43.24
38038;BME280;23843;51.320;12.340;2022-07-29T06:14:17;100407.88;;;19.54;43.18
38038;BME280;23843;51.320;12.340;2022-07-29T06:16:42;100402.91;;;19.49;43.17
38038;BME280;23843;51.320;12.340;2022-07-29T06:19:08;100403.88;;;19.48;43.44
38038;BME280;23843;51.320;12.340;2022-07-29T06:21:33;100401.38;;;19.56;43.46
38038;BME280;23843;51.320;12.340;2022-07-29T06:23:59;100404.47;;;19.61;43.07
38038;BME280;23843;51.320;12.340;2022-07-29T06:26:24;100408.34;;;19.69;43.33
38038;BME280;23843;51.320;12.340;2022-07-29T06:28:49;100406.78;;;19.76;43.16
38038;BME280;23843;51.320;12.340;2022-07-29T06:31:16;100406.78;;;19.76;43.11
38038;BME280;23843;51.320;12.340;2022-07-29T06:33:42;100401.41;;;19.76;42.91
38038;BME280;23843;51.320;12.340;2022-07-29T06:36:08;100400.00;;;19.81;43.13
38038;BME280;23843;51.320;12.340;2022-07-29T06:38:33;100399.16;;;19.91;42.98
38038;BME280;23843;51.320;12.340;2022-07-29T06:40:59;100402.69;;;19.91;42.98
38038;BME280;23843;51.320;12.340;2022-07-29T06:43:25;100402.25;;;19.96;42.98
38038;BME280;23843;51.320;12.340;2022-07-29T06:45:50;100403.19;;;20.34;42.68
38038;BME280;23843;51.320;12.340;2022-07-29T06:48:17;100408.00;;;20.87;42.12
38038;BME280;23843;51.320;12.340;2022-07-29T06:50:42;100406.66;;;21.01;40.94
38038;BME280;23843;51.320;12.340;2022-07-29T06:53:08;100402.63;;;20.87;41.30
38038;BME280;23843;51.320;12.340;2022-07-29T06:55:33;100414.66;;;20.92;40.84
38038;BME280;23843;51.320;12.340;2022-07-29T06:57:59;100419.81;;;21.41;41.09
38038;BME280;23843;51.320;12.340;2022-07-29T07:00:24;100414.38;;;21.69;40.64
38038;BME280;23843;51.320;12.340;2022-07-29T07:02:50;100413.94;;;21.99;40.27
38038;BME280;23843;51.320;12.340;2022-07-29T07:05:16;100417.81;;;22.85;39.61
38038;BME280;23843;51.320;12.340;2022-07-29T07:07:42;100409.34;;;23.89;36.93
38038;BME280;23843;51.320;12.340;2022-07-29T07:10:08;100411.03;;;25.43;36.37
38038;BME280;23843;51.320;12.340;2022-07-29T07:12:33;100403.22;;;26.70;33.78
38038;BME280;23843;51.320;12.340;2022-07-29T07:14:59;100400.00;;;27.41;33.67
38038;BME280;23843;51.320;12.340;2022-07-29T07:17:24;100400.31;;;27.89;31.33
38038;BME280;23843;51.320;12.340;2022-07-29T07:19:50;100407.69;;;27.73;31.12
38038;BME280;23843;51.320;12.340;2022-07-29T07:22:16;100399.00;;;28.56;30.72
38038;BME280;23843;51.320;12.340;2022-07-29T07:24:42;100399.75;;;29.74;29.82
38038;BME280;23843;51.320;12.340;2022-07-29T07:27:07;100405.03;;;30.56;27.79
38038;BME280;23843;51.320;12.340;2022-07-29T07:29:33;100408.31;;;30.98;26.70
38038;BME280;23843;51.320;12.340;2022-07-29T07:31:58;100408.13;;;30.79;29.37
38038;BME280;23843;51.320;12.340;2022-07-29T07:34:26;100413.22;;;30.62;29.13
38038;BME280;23843;51.320;12.340;2022-07-29T07:36:52;100412.22;;;30.43;28.76
38038;BME280;23843;51.320;12.340;2022-07-29T07:39:19;100411.56;;;30.41;30.71
38038;BME280;23843;51.320;12.340;2022-07-29T07:41:44;100411.56;;;30.41;29.28
38038;BME280;23843;51.320;12.340;2022-07-29T07:44:10;100405.69;;;30.51;28.57
38038;BME280;23843;51.320;12.340;2022-07-29T07:46:35;100398.66;;;30.82;28.63
38038;BME280;23843;51.320;12.340;2022-07-29T07:49:00;100400.16;;;30.71;29.50
38038;BME280;23843;51.320;12.340;2022-07-29T07:51:37;100398.06;;;30.66;27.88
38038;BME280;23843;51.320;12.340;2022-07-29T07:54:03;100409.00;;;30.53;27.99
38038;BME280;23843;51.320;12.340;2022-07-29T07:56:32;100402.94;;;30.44;27.49
38038;BME280;23843;51.320;12.340;2022-07-29T07:58:58;100409.22;;;30.65;26.53
38038;BME280;23843;51.320;12.340;2022-07-29T08:01:23;100405.88;;;31.28;27.02
38038;BME280;23843;51.320;12.340;2022-07-29T08:03:49;100406.59;;;31.87;24.87
38038;BME280;23843;51.320;12.340;2022-07-29T08:06:15;100397.81;;;33.15;25.70
38038;BME280;23843;51.320;12.340;2022-07-29T08:08:40;100386.34;;;34.21;22.08
38038;BME280;23843;51.320;12.340;2022-07-29T08:11:06;100387.91;;;34.76;22.27
38038;BME280;23843;51.320;12.340;2022-07-29T08:13:32;100387.41;;;35.31;20.33
38038;BME280;23843;51.320;12.340;2022-07-29T08:15:59;100387.22;;;35.95;20.37
38038;BME280;23843;51.320;12.340;2022-07-29T08:18:25;100377.94;;;37.13;20.19
38038;BME280;23843;51.320;12.340;2022-07-29T08:20:51;100381.78;;;37.61;17.50
38038;BME280;23843;51.320;12.340;2022-07-29T08:23:16;100377.59;;;38.18;17.25
38038;BME280;23843;51.320;12.340;2022-07-29T08:25:42;100377.22;;;38.94;17.22
38038;BME280;23843;51.320;12.340;2022-07-29T08:28:08;100371.34;;;38.80;15.64
38038;BME280;23843;51.320;12.340;2022-07-29T08:30:35;100372.59;;;38.57;16.16
38038;BME280;23843;51.320;12.340;2022-07-29T08:33:00;100373.34;;;38.05;15.81
38038;BME280;23843;51.320;12.340;2022-07-29T08:35:26;100365.72;;;38.70;16.16
38038;BME280;23843;51.320;12.340;2022-07-29T08:37:52;100363.38;;;38.99;16.67
38038;BME280;23843;51.320;12.340;2022-07-29T08:40:19;100357.03;;;39.04;16.42
38038;BME280;23843;51.320;12.340;2022-07-29T08:42:44;100369.56;;;39.27;15.50
38038;BME280;23843;51.320;12.340;2022-07-29T08:45:10;100358.56;;;40.09;14.95
38038;BME280;23843;51.320;12.340;2022-07-29T08:47:38;100363.84;;;39.79;14.56
38038;BME280;23843;51.320;12.340;2022-07-29T08:50:04;100359.09;;;38.28;16.42
38038;BME280;23843;51.320;12.340;2022-07-29T08:52:30;100366.19;;;36.22;16.81
38038;BME280;23843;51.320;12.340;2022-07-29T08:54:58;100355.53;;;34.94;18.62
38038;BME280;23843;51.320;12.340;2022-07-29T08:57:25;100357.44;;;34.30;20.04
38038;BME280;23843;51.320;12.340;2022-07-29T08:59:52;100350.66;;;33.37;21.29
38038;BME280;23843;51.320;12.340;2022-07-29T09:02:20;100355.31;;;32.99;22.19
38038;BME280;23843;51.320;12.340;2022-07-29T09:04:47;100351.00;;;32.92;21.75
38038;BME280;23843;51.320;12.340;2022-07-29T09:09:39;100362.91;;;31.98;22.30
38038;BME280;23843;51.320;12.340;2022-07-29T09:12:06;100359.09;;;31.36;22.67
38038;BME280;23843;51.320;12.340;2022-07-29T09:14:31;100358.88;;;31.38;22.74
38038;BME280;23843;51.320;12.340;2022-07-29T09:16:57;100354.63;;;31.48;23.20
38038;BME280;23843;51.320;12.340;2022-07-29T09:19:25;100359.81;;;31.18;23.24
38038;BME280;23843;51.320;12.340;2022-07-29T09:21:53;100355.28;;;30.99;23.63
38038;BME280;23843;51.320;12.340;2022-07-29T09:24:19;100357.88;;;30.74;23.68
38038;BME280;23843;51.320;12.340;2022-07-29T09:26:45;100352.88;;;30.57;23.51
38038;BME280;23843;51.320;12.340;2022-07-29T09:29:14;100357.94;;;30.47;23.93
38038;BME280;23843;51.320;12.340;2022-07-29T09:31:41;100354.56;;;30.58;23.61
38038;BME280;23843;51.320;12.340;2022-07-29T09:34:08;100355.84;;;30.56;23.49
38038;BME280;23843;51.320;12.340;2022-07-29T09:36:39;100353.88;;;30.63;24.08
38038;BME280;23843;51.320;12.340;2022-07-29T09:39:06;100360.81;;;30.85;23.54
38038;BME280;23843;51.320;12.340;2022-07-29T09:41:44;100359.34;;;30.83;23.48
38038;BME280;23843;51.320;12.340;2022-07-29T09:44:10;100354.81;;;30.43;23.92
38038;BME280;23843;51.320;12.340;2022-07-29T09:46:35;100345.34;;;30.33;24.53
38038;BME280;23843;51.320;12.340;2022-07-29T09:49:08;100345.13;;;30.21;24.64
38038;BME280;23843;51.320;12.340;2022-07-29T09:51:36;100331.50;;;30.27;24.81
38038;BME280;23843;51.320;12.340;2022-07-29T09:54:01;100337.53;;;30.56;24.47
38038;BME280;23843;51.320;12.340;2022-07-29T09:56:39;100345.34;;;30.39;24.19
38038;BME280;23843;51.320;12.340;2022-07-29T09:59:05;100341.34;;;30.42;24.74
38038;BME280;23843;51.320;12.340;2022-07-29T10:01:34;100342.81;;;30.18;24.77
38038;BME280;23843;51.320;12.340;2022-07-29T10:03:59;100326.84;;;30.08;24.50
38038;BME280;23843;51.320;12.340;2022-07-29T10:06:25;100341.16;;;30.10;24.15
38038;BME280;23843;51.320;12.340;2022-07-29T10:08:51;100321.00;;;29.98;24.62
38038;BME280;23843;51.320;12.340;2022-07-29T10:11:17;100316.38;;;29.78;24.79
38038;BME280;23843;51.320;12.340;2022-07-29T10:13:46;100325.97;;;29.48;24.41
38038;BME280;23843;51.320;12.340;2022-07-29T10:16:13;100320.66;;;29.26;24.89
38038;BME280;23843;51.320;12.340;2022-07-29T10:18:39;100320.16;;;29.02;25.66
38038;BME280;23843;51.320;12.340;2022-07-29T10:21:05;100312.63;;;29.05;25.79
38038;BME280;23843;51.320;12.340;2022-07-29T10:23:31;100310.16;;;29.10;25.87
38038;BME280;23843;51.320;12.340;2022-07-29T10:25:57;100312.59;;;28.98;25.44
38038;BME280;23843;51.320;12.340;2022-07-29T10:28:22;100314.47;;;28.91;25.64
38038;BME280;23843;51.320;12.340;2022-07-29T10:30:51;100309.41;;;28.94;25.93
38038;BME280;23843;51.320;12.340;2022-07-29T10:33:37;100315.09;;;28.93;26.04
38038;BME280;23843;51.320;12.340;2022-07-29T10:36:21;100311.47;;;28.79;25.97
38038;BME280;23843;51.320;12.340;2022-07-29T10:38:55;100315.81;;;28.67;25.70
38038;BME280;23843;51.320;12.340;2022-07-29T10:41:46;100300.03;;;28.55;26.79
38038;BME280;23843;51.320;12.340;2022-07-29T10:44:14;100304.72;;;28.68;26.64
38038;BME280;23843;51.320;12.340;2022-07-29T10:46:42;100303.91;;;28.74;25.08
38038;BME280;23843;51.320;12.340;2022-07-29T10:49:10;100293.22;;;28.79;25.41
38038;BME280;23843;51.320;12.340;2022-07-29T10:52:03;100304.16;;;28.86;24.94
38038;BME280;23843;51.320;12.340;2022-07-29T10:54:43;100290.50;;;28.79;25.43
38038;BME280;23843;51.320;12.340;2022-07-29T10:57:13;100292.38;;;28.79;25.84
38038;BME280;23843;51.320;12.340;2022-07-29T10:59:39;100292.16;;;28.74;24.75
38038;BME280;23843;51.320;12.340;2022-07-29T11:02:41;100295.97;;;28.86;25.45
38038;BME280;23843;51.320;12.340;2022-07-29T11:05:09;100290.31;;;28.81;25.32
38038;BME280;23843;51.320;12.340;2022-07-29T11:07:35;100290.34;;;28.88;24.77
38038;BME280;23843;51.320;12.340;2022-07-29T11:10:23;100295.19;;;28.92;24.88
38038;BME280;23843;51.320;12.340;2022-07-29T11:12:49;100301.06;;;29.02;24.50
38038;BME280;23843;51.320;12.340;2022-07-29T11:15:15;100287.59;;;28.88;24.79
38038;BME280;23843;51.320;12.340;2022-07-29T11:20:44;100286.19;;;29.05;24.87
38038;BME280;23843;51.320;12.340;2022-07-29T11:23:24;100280.53;;;29.07;25.05
38038;BME280;23843;51.320;12.340;2022-07-29T11:26:14;100279.25;;;29.02;25.06
38038;BME280;23843;51.320;12.340;2022-07-29T11:28:50;100284.06;;;29.00;25.24
38038;BME280;23843;51.320;12.340;2022-07-29T11:31:16;100288.09;;;29.11;25.22
38038;BME280;23843;51.320;12.340;2022-07-29T11:33:44;100291.47;;;29.13;25.22
38038;BME280;23843;51.320;12.340;2022-07-29T11:36:13;100275.47;;;29.03;24.79
38038;BME280;23843;51.320;12.340;2022-07-29T11:38:39;100278.44;;;29.02;24.69
38038;BME280;23843;51.320;12.340;2022-07-29T11:41:20;100274.38;;;28.91;24.78
38038;BME280;23843;51.320;12.340;2022-07-29T11:43:45;100267.91;;;28.92;25.09
38038;BME280;23843;51.320;12.340;2022-07-29T11:46:11;100270.38;;;28.87;24.50
38038;BME280;23843;51.320;12.340;2022-07-29T11:48:41;100269.78;;;28.85;24.94
38038;BME280;23843;51.320;12.340;2022-07-29T11:51:09;100267.25;;;28.84;25.21
38038;BME280;23843;51.320;12.340;2022-07-29T11:53:37;100272.06;;;28.81;25.47
38038;BME280;23843;51.320;12.340;2022-07-29T11:56:03;100254.41;;;28.77;25.39
38038;BME280;23843;51.320;12.340;2022-07-29T11:58:29;100265.53;;;28.76;25.46
38038;BME280;23843;51.320;12.340;2022-07-29T12:00:56;100254.19;;;28.72;25.72
38038;BME280;23843;51.320;12.340;2022-07-29T12:03:24;100258.38;;;28.75;25.77
38038;BME280;23843;51.320;12.340;2022-07-29T12:05:50;100252.31;;;28.73;25.51
38038;BME280;23843;51.320;12.340;2022-07-29T12:08:17;100248.53;;;28.74;25.75
38038;BME280;23843;51.320;12.340;2022-07-29T12:10:45;100245.63;;;28.75;25.46
38038;BME280;23843;51.320;12.340;2022-07-29T12:13:10;100242.25;;;28.73;25.45
38038;BME280;23843;51.320;12.340;2022-07-29T12:15:36;100232.59;;;28.77;26.00
38038;BME280;23843;51.320;12.340;2022-07-29T12:18:15;100237.63;;;28.74;25.71
38038;BME280;23843;51.320;12.340;2022-07-29T12:20:41;100234.50;;;28.77;26.18
38038;BME280;23843;51.320;12.340;2022-07-29T12:23:07;100232.41;;;28.79;26.18
38038;BME280;23843;51.320;12.340;2022-07-29T12:25:34;100223.41;;;28.85;26.11
38038;BME280;23843;51.320;12.340;2022-07-29T12:28:03;100233.28;;;28.86;25.75
38038;BME280;23843;51.320;12.340;2022-07-29T12:30:38;100222.38;;;28.93;26.26
38038;BME280;23843;51.320;12.340;2022-07-29T12:33:10;100215.91;;;29.00;25.96
38038;BME280;23843;51.320;12.340;2022-07-29T12:35:36;100214.22;;;28.99;26.34
38038;BME280;23843;51.320;12.340;2022-07-29T12:38:02;100213.38;;;28.92;26.56
38038;BME280;23843;51.320;12.340;2022-07-29T12:40:28;100210.88;;;28.97;26.44
38038;BME280;23843;51.320;12.340;2022-07-29T12:43:07;100225.53;;;28.90;26.76
38038;BME280;23843;51.320;12.340;2022-07-29T12:45:32;100217.13;;;28.91;26.51
38038;BME280;23843;51.320;12.340;2022-07-29T12:47:58;100214.38;;;28.85;26.66